sensor_id;sensor_type;location;lat;lon;timestamp;P1;durP1;ratioP1;P2;durP2;ratioP2
21804;SDS011;11064;47.102;15.452;2023-02-28T05:02:56;12.63;;;6.80;;
21804;SDS011;11064;47.102;15.452;2023-02-28T05:05:22;13.18;;;7.28;;
21804;SDS011;11064;47.102;15.452;2023-02-28T05:07:48;11.10;;;6.95;;
21804;SDS011;11064;47.102;15.452;2023-02-28T05:10:14;11.30;;;7.25;;
21804;SDS011;11064;47.102;15.452;2023-02-28T05:12:40;11.32;;;7.32;;
21804;SDS011;11064;47.102;15.452;2023-02-28T05:15:06;13.05;;;6.97;;
21804;SDS011;11064;47.102;15.452;2023-02-28T05:17:33;9.27;;;6.80;;
21804;SDS011;11064;47.102;15.452;2023-02-28T05:19:59;11.02;;;7.30;;
21804;SDS011;11064;47.102;15.452;2023-02-28T05:22:24;13.27;;;7.40;;
21804;SDS011;11064;47.102;15.452;2023-02-28T05:24:50;11.95;;;6.78;;
21804;SDS011;11064;47.102;15.452;2023-02-28T05:27:16;14.30;;;7.75;;
21804;SDS011;11064;47.102;15.452;2023-02-28T05:29:42;12.82;;;7.78;;
21804;SDS011;11064;47.102;15.452;2023-02-28T05:32:10;11.90;;;7.57;;
21804;SDS011;11064;47.102;15.452;2023-02-28T05:34:38;14.55;;;8.10;;
21804;SDS011;11064;47.102;15.452;2023-02-28T05:37:04;12.88;;;7.80;;
21804;SDS011;11064;47.102;15.452;2023-02-28T05:39:30;14.23;;;8.45;;
21804;SDS011;11064;47.102;15.452;2023-02-28T05:41:56;12.88;;;7.72;;
21804;SDS011;11064;47.102;15.452;2023-02-28T05:44:22;14.23;;;8.40;;
21804;SDS011;11064;47.102;15.452;2023-02-28T05:46:49;13.93;;;7.78;;
21804;SDS011;11064;47.102;15.452;2023-02-28T05:49:15;13.05;;;8.25;;
21804;SDS011;11064;47.102;15.452;2023-02-28T05:51:41;14.82;;;8.05;;
21804;SDS011;11064;47.102;15.452;2023-02-28T05:54:07;16.45;;;8.80;;
21804;SDS011;11064;47.102;15.452;2023-02-28T05:56:33;13.25;;;8.35;;
21804;SDS011;11064;47.102;15.452;2023-02-28T05:59:00;14.07;;;8.35;;
21804;SDS011;11064;47.102;15.452;2023-02-28T06:04:01;13.55;;;8.05;;
21804;SDS011;11064;47.102;15.452;2023-02-28T06:06:29;13.55;;;8.50;;
21804;SDS011;11064;47.102;15.452;2023-02-28T06:08:55;16.50;;;8.63;;
21804;SDS011;11064;47.102;15.452;2023-02-28T06:11:21;13.27;;;8.95;;
21804;SDS011;11064;47.102;15.452;2023-02-28T06:13:58;14.23;;;8.52;;
21804;SDS011;11064;47.102;15.452;2023-02-28T06:16:26;14.93;;;9.32;;
21804;SDS011;11064;47.102;15.452;2023-02-28T06:18:53;13.25;;;8.40;;
21804;SDS011;11064;47.102;15.452;2023-02-28T06:21:21;14.73;;;8.93;;
21804;SDS011;11064;47.102;15.452;2023-02-28T06:23:48;12.93;;;8.27;;
21804;SDS011;11064;47.102;15.452;2023-02-28T06:26:13;14.77;;;8.23;;
21804;SDS011;11064;47.102;15.452;2023-02-28T06:28:39;14.18;;;8.85;;
21804;SDS011;11064;47.102;15.452;2023-02-28T06:31:09;15.10;;;8.68;;
21804;SDS011;11064;47.102;15.452;2023-02-28T06:33:36;13.10;;;8.95;;
21804;SDS011;11064;47.102;15.452;2023-02-28T06:36:03;16.20;;;9.70;;
21804;SDS011;11064;47.102;15.452;2023-02-28T06:38:31;15.73;;;8.70;;
21804;SDS011;11064;47.102;15.452;2023-02-28T06:40:57;14.05;;;8.82;;
21804;SDS011;11064;47.102;15.452;2023-02-28T06:43:25;16.20;;;9.30;;
21804;SDS011;11064;47.102;15.452;2023-02-28T06:45:54;14.57;;;8.68;;
21804;SDS011;11064;47.102;15.452;2023-02-28T06:48:21;18.02;;;9.23;;
21804;SDS011;11064;47.102;15.452;2023-02-28T06:50:47;13.68;;;8.93;;
21804;SDS011;11064;47.102;15.452;2023-02-28T06:53:13;15.57;;;9.45;;
21804;SDS011;11064;47.102;15.452;2023-02-28T06:55:39;15.90;;;8.85;;
21804;SDS011;11064;47.102;15.452;2023-02-28T06:58:05;16.45;;;9.27;;
21804;SDS011;11064;47.102;15.452;2023-02-28T07:00:43;14.73;;;9.13;;
21804;SDS011;11064;47.102;15.452;2023-02-28T07:03:10;15.77;;;9.45;;
21804;SDS011;11064;47.102;15.452;2023-02-28T07:05:37;15.88;;;8.88;;
21804;SDS011;11064;47.102;15.452;2023-02-28T07:08:05;15.38;;;8.90;;
21804;SDS011;11064;47.102;15.452;2023-02-28T07:10:34;16.25;;;8.90;;
21804;SDS011;11064;47.102;15.452;2023-02-28T07:13:04;14.43;;;8.57;;
21804;SDS011;11064;47.102;15.452;2023-02-28T07:15:31;14.98;;;9.07;;
21804;SDS011;11064;47.102;15.452;2023-02-28T07:17:57;16.58;;;9.18;;
21804;SDS011;11064;47.102;15.452;2023-02-28T07:20:23;20.15;;;14.13;;
21804;SDS011;11064;47.102;15.452;2023-02-28T07:22:50;17.08;;;10.10;;
21804;SDS011;11064;47.102;15.452;2023-02-28T07:25:27;18.50;;;9.70;;
21804;SDS011;11064;47.102;15.452;2023-02-28T07:27:54;18.05;;;9.40;;
21804;SDS011;11064;47.102;15.452;2023-02-28T07:30:21;17.15;;;9.20;;
21804;SDS011;11064;47.102;15.452;2023-02-28T07:32:47;15.90;;;9.52;;
21804;SDS011;11064;47.102;15.452;2023-02-28T07:35:13;18.27;;;9.80;;
21804;SDS011;11064;47.102;15.452;2023-02-28T07:37:40;18.20;;;9.77;;
21804;SDS011;11064;47.102;15.452;2023-02-28T07:40:08;16.23;;;9.50;;
21804;SDS011;11064;47.102;15.452;2023-02-28T07:42:39;15.10;;;9.48;;
21804;SDS011;11064;47.102;15.452;2023-02-28T07:45:07;17.08;;;10.07;;
21804;SDS011;11064;47.102;15.452;2023-02-28T07:47:37;14.50;;;9.35;;
21804;SDS011;11064;47.102;15.452;2023-02-28T07:50:04;15.43;;;9.32;;
21804;SDS011;11064;47.102;15.452;2023-02-28T07:52:32;15.02;;;9.90;;
21804;SDS011;11064;47.102;15.452;2023-02-28T07:54:58;19.73;;;9.57;;
21804;SDS011;11064;47.102;15.452;2023-02-28T07:57:23;16.25;;;8.95;;
21804;SDS011;11064;47.102;15.452;2023-02-28T07:59:50;16.35;;;9.73;;
21804;SDS011;11064;47.102;15.452;2023-02-28T08:02:17;15.70;;;10.10;;
21804;SDS011;11064;47.102;15.452;2023-02-28T08:04:44;21.50;;;10.00;;
21804;SDS011;11064;47.102;15.452;2023-02-28T08:07:12;16.75;;;9.52;;
21804;SDS011;11064;47.102;15.452;2023-02-28T08:09:39;18.25;;;10.20;;
21804;SDS011;11064;47.102;15.452;2023-02-28T08:12:06;16.63;;;9.48;;
21804;SDS011;11064;47.102;15.452;2023-02-28T08:14:32;16.90;;;9.68;;
21804;SDS011;11064;47.102;15.452;2023-02-28T08:16:58;16.33;;;9.60;;
21804;SDS011;11064;47.102;15.452;2023-02-28T08:19:25;14.80;;;9.70;;
21804;SDS011;11064;47.102;15.452;2023-02-28T08:21:50;15.00;;;9.63;;
21804;SDS011;11064;47.102;15.452;2023-02-28T08:24:16;17.33;;;9.95;;
21804;SDS011;11064;47.102;15.452;2023-02-28T08:26:43;16.45;;;9.82;;
21804;SDS011;11064;47.102;15.452;2023-02-28T08:29:09;17.08;;;9.95;;
21804;SDS011;11064;47.102;15.452;2023-02-28T08:31:35;16.02;;;9.75;;
21804;SDS011;11064;47.102;15.452;2023-02-28T08:34:07;19.17;;;10.77;;
21804;SDS011;11064;47.102;15.452;2023-02-28T08:36:35;16.13;;;9.73;;
21804;SDS011;11064;47.102;15.452;2023-02-28T08:39:02;17.77;;;10.13;;
21804;SDS011;11064;47.102;15.452;2023-02-28T08:41:28;16.15;;;9.77;;
21804;SDS011;11064;47.102;15.452;2023-02-28T08:43:55;16.38;;;9.80;;
21804;SDS011;11064;47.102;15.452;2023-02-28T08:46:20;15.18;;;9.30;;
21804;SDS011;11064;47.102;15.452;2023-02-28T08:48:46;16.63;;;10.23;;
21804;SDS011;11064;47.102;15.452;2023-02-28T08:51:13;17.73;;;10.32;;
21804;SDS011;11064;47.102;15.452;2023-02-28T08:53:43;15.40;;;9.23;;
21804;SDS011;11064;47.102;15.452;2023-02-28T08:56:12;17.17;;;10.88;;
21804;SDS011;11064;47.102;15.452;2023-02-28T08:58:39;18.38;;;11.07;;
21804;SDS011;11064;47.102;15.452;2023-02-28T09:01:09;18.52;;;10.40;;
21804;SDS011;11064;47.102;15.452;2023-02-28T09:03:40;16.05;;;10.15;;
21804;SDS011;11064;47.102;15.452;2023-02-28T09:06:07;17.73;;;10.02;;
21804;SDS011;11064;47.102;15.452;2023-02-28T09:08:34;20.23;;;12.07;;
21804;SDS011;11064;47.102;15.452;2023-02-28T09:11:00;19.63;;;11.07;;
21804;SDS011;11064;47.102;15.452;2023-02-28T09:13:28;19.48;;;10.85;;
21804;SDS011;11064;47.102;15.452;2023-02-28T09:15:54;15.73;;;10.10;;
21804;SDS011;11064;47.102;15.452;2023-02-28T09:18:22;17.55;;;10.68;;
21804;SDS011;11064;47.102;15.452;2023-02-28T09:20:48;16.45;;;10.65;;
21804;SDS011;11064;47.102;15.452;2023-02-28T09:23:15;16.20;;;10.45;;
21804;SDS011;11064;47.102;15.452;2023-02-28T09:25:45;17.85;;;10.65;;
21804;SDS011;11064;47.102;15.452;2023-02-28T09:28:16;16.15;;;10.32;;
21804;SDS011;11064;47.102;15.452;2023-02-28T09:30:46;18.15;;;10.25;;
21804;SDS011;11064;47.102;15.452;2023-02-28T09:33:14;17.75;;;10.05;;
21804;SDS011;11064;47.102;15.452;2023-02-28T09:35:41;18.63;;;10.23;;
21804;SDS011;11064;47.102;15.452;2023-02-28T09:38:09;17.85;;;10.60;;
21804;SDS011;11064;47.102;15.452;2023-02-28T09:43:20;18.42;;;10.30;;
21804;SDS011;11064;47.102;15.452;2023-02-28T09:45:56;14.20;;;9.90;;
21804;SDS011;11064;47.102;15.452;2023-02-28T09:48:34;18.45;;;10.73;;
21804;SDS011;11064;47.102;15.452;2023-02-28T09:51:09;15.80;;;10.75;;
21804;SDS011;11064;47.102;15.452;2023-02-28T09:53:44;17.98;;;10.75;;
21804;SDS011;11064;47.102;15.452;2023-02-28T09:56:15;15.48;;;10.18;;
21804;SDS011;11064;47.102;15.452;2023-02-28T09:58:59;16.80;;;10.18;;
21804;SDS011;11064;47.102;15.452;2023-02-28T10:09:45;17.70;;;10.88;;
21804;SDS011;11064;47.102;15.452;2023-02-28T10:12:17;16.92;;;11.13;;
21804;SDS011;11064;47.102;15.452;2023-02-28T10:14:45;17.25;;;10.90;;
21804;SDS011;11064;47.102;15.452;2023-02-28T10:17:23;16.35;;;10.68;;
21804;SDS011;11064;47.102;15.452;2023-02-28T10:20:02;20.55;;;11.40;;
21804;SDS011;11064;47.102;15.452;2023-02-28T10:22:41;17.88;;;10.43;;
21804;SDS011;11064;47.102;15.452;2023-02-28T10:25:23;17.60;;;11.07;;
21804;SDS011;11064;47.102;15.452;2023-02-28T10:27:59;18.08;;;10.93;;
21804;SDS011;11064;47.102;15.452;2023-02-28T10:30:30;17.98;;;10.75;;
21804;SDS011;11064;47.102;15.452;2023-02-28T10:32:56;18.48;;;10.98;;
21804;SDS011;11064;47.102;15.452;2023-02-28T10:35:23;19.45;;;10.73;;
21804;SDS011;11064;47.102;15.452;2023-02-28T10:37:55;19.75;;;11.00;;
21804;SDS011;11064;47.102;15.452;2023-02-28T10:42:55;17.75;;;11.30;;
21804;SDS011;11064;47.102;15.452;2023-02-28T10:45:21;18.45;;;10.82;;
21804;SDS011;11064;47.102;15.452;2023-02-28T10:50:28;15.93;;;10.32;;
21804;SDS011;11064;47.102;15.452;2023-02-28T10:52:54;18.38;;;10.55;;
21804;SDS011;11064;47.102;15.452;2023-02-28T10:55:30;17.77;;;11.48;;
21804;SDS011;11064;47.102;15.452;2023-02-28T10:57:56;17.73;;;11.13;;
21804;SDS011;11064;47.102;15.452;2023-02-28T11:00:23;16.77;;;11.40;;
21804;SDS011;11064;47.102;15.452;2023-02-28T11:02:50;18.50;;;11.98;;
21804;SDS011;11064;47.102;15.452;2023-02-28T11:08:32;16.60;;;11.25;;
21804;SDS011;11064;47.102;15.452;2023-02-28T11:10:43;17.43;;;11.23;;
21804;SDS011;11064;47.102;15.452;2023-02-28T11:13:19;21.48;;;11.77;;
21804;SDS011;11064;47.102;15.452;2023-02-28T11:15:53;18.25;;;11.38;;
21804;SDS011;11064;47.102;15.452;2023-02-28T11:21:07;18.10;;;11.70;;
21804;SDS011;11064;47.102;15.452;2023-02-28T11:23:36;21.27;;;12.65;;
21804;SDS011;11064;47.102;15.452;2023-02-28T11:26:05;18.05;;;11.43;;
21804;SDS011;11064;47.102;15.452;2023-02-28T11:28:37;18.67;;;11.68;;
21804;SDS011;11064;47.102;15.452;2023-02-28T11:33:47;18.95;;;11.52;;
21804;SDS011;11064;47.102;15.452;2023-02-28T11:38:50;18.40;;;11.27;;
21804;SDS011;11064;47.102;15.452;2023-02-28T11:46:44;19.20;;;11.98;;
21804;SDS011;11064;47.102;15.452;2023-02-28T11:52:28;18.15;;;12.13;;
21804;SDS011;11064;47.102;15.452;2023-02-28T11:58:11;21.95;;;12.70;;
21804;SDS011;11064;47.102;15.452;2023-02-28T12:03:34;22.60;;;11.68;;
21804;SDS011;11064;47.102;15.452;2023-02-28T12:09:30;18.15;;;12.38;;
21804;SDS011;11064;47.102;15.452;2023-02-28T12:12:21;18.00;;;12.00;;
21804;SDS011;11064;47.102;15.452;2023-02-28T12:21:04;20.52;;;11.73;;
21804;SDS011;11064;47.102;15.452;2023-02-28T12:24:13;20.40;;;12.48;;
21804;SDS011;11064;47.102;15.452;2023-02-28T12:27:02;18.83;;;12.10;;
21804;SDS011;11064;47.102;15.452;2023-02-28T12:38:19;20.55;;;12.80;;
21804;SDS011;11064;47.102;15.452;2023-02-28T12:40:32;18.35;;;11.80;;
21804;SDS011;11064;47.102;15.452;2023-02-28T12:43:40;22.00;;;13.35;;
21804;SDS011;11064;47.102;15.452;2023-02-28T12:46:19;23.45;;;13.20;;
21804;SDS011;11064;47.102;15.452;2023-02-28T12:51:20;21.45;;;12.55;;
21804;SDS011;11064;47.102;15.452;2023-02-28T12:59:25;20.48;;;12.80;;
21804;SDS011;11064;47.102;15.452;2023-02-28T13:02:09;21.33;;;12.83;;
21804;SDS011;11064;47.102;15.452;2023-02-28T13:13:56;21.38;;;13.27;;
21804;SDS011;11064;47.102;15.452;2023-02-28T13:16:23;20.40;;;12.85;;
21804;SDS011;11064;47.102;15.452;2023-02-28T13:18:49;28.17;;;13.52;;
21804;SDS011;11064;47.102;15.452;2023-02-28T13:21:26;22.30;;;13.43;;
21804;SDS011;11064;47.102;15.452;2023-02-28T13:34:33;21.88;;;12.70;;
21804;SDS011;11064;47.102;15.452;2023-02-28T13:39:50;23.42;;;13.85;;
21804;SDS011;11064;47.102;15.452;2023-02-28T13:47:30;22.15;;;13.50;;
21804;SDS011;11064;47.102;15.452;2023-02-28T13:58:31;25.27;;;13.38;;
21804;SDS011;11064;47.102;15.452;2023-02-28T14:01:06;25.92;;;12.93;;
21804;SDS011;11064;47.102;15.452;2023-02-28T14:06:58;20.90;;;13.25;;
21804;SDS011;11064;47.102;15.452;2023-02-28T14:11:51;22.90;;;12.95;;
21804;SDS011;11064;47.102;15.452;2023-02-28T14:17:06;23.25;;;12.93;;
21804;SDS011;11064;47.102;15.452;2023-02-28T14:19:40;23.15;;;12.75;;
21804;SDS011;11064;47.102;15.452;2023-02-28T14:25:18;21.20;;;12.95;;
21804;SDS011;11064;47.102;15.452;2023-02-28T14:28:01;24.10;;;12.60;;
21804;SDS011;11064;47.102;15.452;2023-02-28T14:36:45;22.02;;;12.07;;
21804;SDS011;11064;47.102;15.452;2023-02-28T14:39:14;19.50;;;12.45;;
21804;SDS011;11064;47.102;15.452;2023-02-28T14:41:42;21.73;;;13.05;;
21804;SDS011;11064;47.102;15.452;2023-02-28T14:44:17;19.55;;;12.32;;
21804;SDS011;11064;47.102;15.452;2023-02-28T14:46:43;21.67;;;12.48;;
21804;SDS011;11064;47.102;15.452;2023-02-28T14:51:47;23.00;;;12.57;;
21804;SDS011;11064;47.102;15.452;2023-02-28T14:54:16;21.08;;;12.57;;
21804;SDS011;11064;47.102;15.452;2023-02-28T14:56:49;19.92;;;12.73;;
21804;SDS011;11064;47.102;15.452;2023-02-28T14:59:35;24.63;;;13.32;;
21804;SDS011;11064;47.102;15.452;2023-02-28T15:04:57;21.08;;;12.93;;
21804;SDS011;11064;47.102;15.452;2023-02-28T15:07:25;19.02;;;11.82;;
21804;SDS011;11064;47.102;15.452;2023-02-28T15:10:07;19.58;;;11.80;;
21804;SDS011;11064;47.102;15.452;2023-02-28T15:12:36;21.27;;;11.77;;
21804;SDS011;11064;47.102;15.452;2023-02-28T15:15:04;21.77;;;13.02;;
21804;SDS011;11064;47.102;15.452;2023-02-28T15:17:32;21.23;;;12.05;;
21804;SDS011;11064;47.102;15.452;2023-02-28T15:20:00;23.10;;;12.43;;
21804;SDS011;11064;47.102;15.452;2023-02-28T15:22:31;21.42;;;12.60;;
21804;SDS011;11064;47.102;15.452;2023-02-28T15:25:02;20.65;;;12.02;;
21804;SDS011;11064;47.102;15.452;2023-02-28T15:27:31;20.20;;;11.90;;
21804;SDS011;11064;47.102;15.452;2023-02-28T15:30:14;21.13;;;12.68;;
21804;SDS011;11064;47.102;15.452;2023-02-28T15:32:42;22.77;;;11.75;;
21804;SDS011;11064;47.102;15.452;2023-02-28T15:37:53;20.40;;;12.30;;
21804;SDS011;11064;47.102;15.452;2023-02-28T15:40:27;23.17;;;12.27;;
21804;SDS011;11064;47.102;15.452;2023-02-28T15:43:35;19.38;;;11.98;;
21804;SDS011;11064;47.102;15.452;2023-02-28T15:46:01;22.27;;;12.35;;
21804;SDS011;11064;47.102;15.452;2023-02-28T15:48:30;20.45;;;12.20;;
21804;SDS011;11064;47.102;15.452;2023-02-28T15:51:09;22.52;;;12.93;;
21804;SDS011;11064;47.102;15.452;2023-02-28T15:53:40;24.00;;;12.18;;
21804;SDS011;11064;47.102;15.452;2023-02-28T15:56:17;23.98;;;12.35;;
21804;SDS011;11064;47.102;15.452;2023-02-28T15:58:49;22.88;;;12.60;;
21804;SDS011;11064;47.102;15.452;2023-02-28T16:01:28;20.45;;;12.15;;
21804;SDS011;11064;47.102;15.452;2023-02-28T16:03:57;20.63;;;12.15;;
21804;SDS011;11064;47.102;15.452;2023-02-28T16:06:37;24.00;;;12.57;;
21804;SDS011;11064;47.102;15.452;2023-02-28T16:09:09;20.60;;;12.83;;
21804;SDS011;11064;47.102;15.452;2023-02-28T16:11:49;21.33;;;12.73;;
21804;SDS011;11064;47.102;15.452;2023-02-28T16:14:24;21.73;;;12.77;;
21804;SDS011;11064;47.102;15.452;2023-02-28T16:16:56;23.38;;;12.98;;
21804;SDS011;11064;47.102;15.452;2023-02-28T16:19:28;22.65;;;12.85;;
21804;SDS011;11064;47.102;15.452;2023-02-28T16:21:54;23.48;;;13.40;;
21804;SDS011;11064;47.102;15.452;2023-02-28T16:24:20;23.20;;;12.00;;
21804;SDS011;11064;47.102;15.452;2023-02-28T16:26:47;21.27;;;12.15;;
21804;SDS011;11064;47.102;15.452;2023-02-28T16:29:27;24.23;;;13.40;;
21804;SDS011;11064;47.102;15.452;2023-02-28T16:31:56;22.77;;;12.95;;
21804;SDS011;11064;47.102;15.452;2023-02-28T16:34:22;24.23;;;13.68;;
21804;SDS011;11064;47.102;15.452;2023-02-28T16:36:49;22.23;;;13.25;;
21804;SDS011;11064;47.102;15.452;2023-02-28T16:39:16;22.77;;;12.20;;
21804;SDS011;11064;47.102;15.452;2023-02-28T16:41:42;23.85;;;13.75;;
21804;SDS011;11064;47.102;15.452;2023-02-28T16:44:11;21.98;;;12.77;;
21804;SDS011;11064;47.102;15.452;2023-02-28T16:46:42;21.45;;;12.80;;
21804;SDS011;11064;47.102;15.452;2023-02-28T16:49:10;21.52;;;12.85;;
21804;SDS011;11064;47.102;15.452;2023-02-28T16:51:37;22.10;;;12.95;;
21804;SDS011;11064;47.102;15.452;2023-02-28T16:54:04;20.95;;;12.55;;
21804;SDS011;11064;47.102;15.452;2023-02-28T16:56:30;22.45;;;13.32;;
21804;SDS011;11064;47.102;15.452;2023-02-28T16:58:59;26.40;;;14.23;;
21804;SDS011;11064;47.102;15.452;2023-02-28T17:01:27;25.42;;;13.02;;
21804;SDS011;11064;47.102;15.452;2023-02-28T17:03:54;24.40;;;13.35;;
21804;SDS011;11064;47.102;15.452;2023-02-28T17:06:22;23.58;;;12.95;;
21804;SDS011;11064;47.102;15.452;2023-02-28T17:08:50;23.00;;;12.45;;
21804;SDS011;11064;47.102;15.452;2023-02-28T17:11:17;23.55;;;12.82;;
21804;SDS011;11064;47.102;15.452;2023-02-28T17:13:43;20.15;;;12.00;;
21804;SDS011;11064;47.102;15.452;2023-02-28T17:16:32;22.65;;;12.60;;
21804;SDS011;11064;47.102;15.452;2023-02-28T17:18:59;21.73;;;12.70;;
21804;SDS011;11064;47.102;15.452;2023-02-28T17:21:27;22.95;;;12.50;;
21804;SDS011;11064;47.102;15.452;2023-02-28T17:23:54;20.63;;;11.88;;
21804;SDS011;11064;47.102;15.452;2023-02-28T17:26:21;20.85;;;12.32;;
21804;SDS011;11064;47.102;15.452;2023-02-28T17:28:50;26.85;;;12.77;;
21804;SDS011;11064;47.102;15.452;2023-02-28T17:31:17;23.70;;;13.25;;
21804;SDS011;11064;47.102;15.452;2023-02-28T17:33:44;21.17;;;11.50;;
21804;SDS011;11064;47.102;15.452;2023-02-28T17:36:13;20.90;;;11.38;;
21804;SDS011;11064;47.102;15.452;2023-02-28T17:38:40;19.67;;;11.32;;
21804;SDS011;11064;47.102;15.452;2023-02-28T17:41:07;22.88;;;12.25;;
21804;SDS011;11064;47.102;15.452;2023-02-28T17:43:35;21.90;;;12.45;;
21804;SDS011;11064;47.102;15.452;2023-02-28T17:46:01;22.70;;;12.27;;
21804;SDS011;11064;47.102;15.452;2023-02-28T17:48:30;21.35;;;12.65;;
21804;SDS011;11064;47.102;15.452;2023-02-28T17:50:56;23.42;;;12.60;;
21804;SDS011;11064;47.102;15.452;2023-02-28T17:53:22;20.75;;;12.27;;
21804;SDS011;11064;47.102;15.452;2023-02-28T17:55:49;24.48;;;12.65;;
21804;SDS011;11064;47.102;15.452;2023-02-28T17:58:15;23.30;;;12.88;;
21804;SDS011;11064;47.102;15.452;2023-02-28T18:00:43;20.77;;;12.38;;
21804;SDS011;11064;47.102;15.452;2023-02-28T18:03:12;22.70;;;13.05;;
21804;SDS011;11064;47.102;15.452;2023-02-28T18:05:38;24.23;;;12.20;;
21804;SDS011;11064;47.102;15.452;2023-02-28T18:08:04;25.75;;;13.02;;
21804;SDS011;11064;47.102;15.452;2023-02-28T18:10:30;23.58;;;12.82;;
21804;SDS011;11064;47.102;15.452;2023-02-28T18:12:58;23.73;;;12.85;;
21804;SDS011;11064;47.102;15.452;2023-02-28T18:15:25;21.38;;;12.52;;
21804;SDS011;11064;47.102;15.452;2023-02-28T18:17:52;21.17;;;12.70;;
21804;SDS011;11064;47.102;15.452;2023-02-28T18:20:18;22.95;;;13.38;;
21804;SDS011;11064;47.102;15.452;2023-02-28T18:22:44;23.15;;;13.05;;
21804;SDS011;11064;47.102;15.452;2023-02-28T18:25:11;25.00;;;12.77;;
21804;SDS011;11064;47.102;15.452;2023-02-28T18:27:44;24.65;;;13.05;;
21804;SDS011;11064;47.102;15.452;2023-02-28T18:30:26;22.20;;;12.70;;
21804;SDS011;11064;47.102;15.452;2023-02-28T18:32:57;22.90;;;12.52;;
21804;SDS011;11064;47.102;15.452;2023-02-28T18:35:24;23.55;;;12.05;;
21804;SDS011;11064;47.102;15.452;2023-02-28T18:38:03;25.30;;;12.98;;
21804;SDS011;11064;47.102;15.452;2023-02-28T18:40:34;23.70;;;13.68;;
21804;SDS011;11064;47.102;15.452;2023-02-28T18:43:01;24.20;;;14.20;;
21804;SDS011;11064;47.102;15.452;2023-02-28T18:45:27;25.98;;;14.18;;
21804;SDS011;11064;47.102;15.452;2023-02-28T18:47:54;25.60;;;13.82;;
21804;SDS011;11064;47.102;15.452;2023-02-28T18:50:20;25.52;;;14.27;;
21804;SDS011;11064;47.102;15.452;2023-02-28T18:52:47;22.92;;;12.90;;
21804;SDS011;11064;47.102;15.452;2023-02-28T18:55:15;25.13;;;13.57;;
21804;SDS011;11064;47.102;15.452;2023-02-28T18:57:46;25.75;;;13.32;;
21804;SDS011;11064;47.102;15.452;2023-02-28T19:00:14;23.23;;;13.75;;
21804;SDS011;11064;47.102;15.452;2023-02-28T19:02:44;22.05;;;13.80;;
21804;SDS011;11064;47.102;15.452;2023-02-28T19:05:11;23.83;;;13.20;;
21804;SDS011;11064;47.102;15.452;2023-02-28T19:07:38;25.33;;;13.57;;
21804;SDS011;11064;47.102;15.452;2023-02-28T19:10:05;25.00;;;13.15;;
21804;SDS011;11064;47.102;15.452;2023-02-28T19:12:32;23.73;;;13.13;;
21804;SDS011;11064;47.102;15.452;2023-02-28T19:15:00;26.15;;;14.50;;
21804;SDS011;11064;47.102;15.452;2023-02-28T19:17:26;23.58;;;13.70;;
21804;SDS011;11064;47.102;15.452;2023-02-28T19:19:53;25.90;;;14.02;;
21804;SDS011;11064;47.102;15.452;2023-02-28T19:22:19;26.58;;;14.60;;
21804;SDS011;11064;47.102;15.452;2023-02-28T19:24:45;28.48;;;14.63;;
21804;SDS011;11064;47.102;15.452;2023-02-28T19:27:11;24.73;;;14.57;;
21804;SDS011;11064;47.102;15.452;2023-02-28T19:29:41;24.45;;;14.07;;
21804;SDS011;11064;47.102;15.452;2023-02-28T19:32:07;25.85;;;14.70;;
21804;SDS011;11064;47.102;15.452;2023-02-28T19:34:34;27.63;;;14.65;;
21804;SDS011;11064;47.102;15.452;2023-02-28T19:37:00;22.73;;;13.88;;
21804;SDS011;11064;47.102;15.452;2023-02-28T19:39:26;23.50;;;13.48;;
21804;SDS011;11064;47.102;15.452;2023-02-28T19:41:52;22.42;;;13.13;;
21804;SDS011;11064;47.102;15.452;2023-02-28T19:44:18;26.27;;;12.55;;
21804;SDS011;11064;47.102;15.452;2023-02-28T19:46:45;23.25;;;12.55;;
21804;SDS011;11064;47.102;15.452;2023-02-28T19:49:11;22.17;;;13.02;;
21804;SDS011;11064;47.102;15.452;2023-02-28T19:51:37;26.30;;;13.60;;
21804;SDS011;11064;47.102;15.452;2023-02-28T19:54:05;25.63;;;12.80;;
21804;SDS011;11064;47.102;15.452;2023-02-28T19:56:32;23.60;;;13.15;;
21804;SDS011;11064;47.102;15.452;2023-02-28T19:58:58;22.15;;;12.95;;
21804;SDS011;11064;47.102;15.452;2023-02-28T20:01:25;23.58;;;13.45;;
21804;SDS011;11064;47.102;15.452;2023-02-28T20:03:51;23.48;;;13.07;;
21804;SDS011;11064;47.102;15.452;2023-02-28T20:06:17;23.42;;;13.23;;
21804;SDS011;11064;47.102;15.452;2023-02-28T20:08:44;23.45;;;13.32;;
21804;SDS011;11064;47.102;15.452;2023-02-28T20:11:12;28.75;;;13.27;;
21804;SDS011;11064;47.102;15.452;2023-02-28T20:13:40;25.57;;;13.97;;
21804;SDS011;11064;47.102;15.452;2023-02-28T20:16:07;23.45;;;13.30;;
21804;SDS011;11064;47.102;15.452;2023-02-28T20:18:36;21.05;;;12.82;;
21804;SDS011;11064;47.102;15.452;2023-02-28T20:21:03;27.55;;;16.15;;
21804;SDS011;11064;47.102;15.452;2023-02-28T20:23:32;26.15;;;14.25;;
21804;SDS011;11064;47.102;15.452;2023-02-28T20:25:59;24.42;;;14.35;;
21804;SDS011;11064;47.102;15.452;2023-02-28T20:28:25;27.38;;;15.38;;
21804;SDS011;11064;47.102;15.452;2023-02-28T20:30:52;26.25;;;15.00;;
21804;SDS011;11064;47.102;15.452;2023-02-28T20:33:18;26.55;;;15.05;;
21804;SDS011;11064;47.102;15.452;2023-02-28T20:35:44;27.98;;;15.25;;
21804;SDS011;11064;47.102;15.452;2023-02-28T20:38:11;32.53;;;14.98;;
21804;SDS011;11064;47.102;15.452;2023-02-28T20:40:37;24.90;;;14.65;;
21804;SDS011;11064;47.102;15.452;2023-02-28T20:43:03;26.27;;;14.00;;
21804;SDS011;11064;47.102;15.452;2023-02-28T20:45:30;30.17;;;14.65;;
21804;SDS011;11064;47.102;15.452;2023-02-28T20:47:56;27.15;;;15.27;;
21804;SDS011;11064;47.102;15.452;2023-02-28T20:50:22;26.10;;;13.52;;
21804;SDS011;11064;47.102;15.452;2023-02-28T20:52:48;27.50;;;14.90;;
21804;SDS011;11064;47.102;15.452;2023-02-28T20:55:15;24.52;;;13.68;;
21804;SDS011;11064;47.102;15.452;2023-02-28T20:57:41;23.00;;;13.15;;
21804;SDS011;11064;47.102;15.452;2023-02-28T21:00:08;22.88;;;13.32;;
21804;SDS011;11064;47.102;15.452;2023-02-28T21:02:43;26.08;;;13.88;;
21804;SDS011;11064;47.102;15.452;2023-02-28T21:05:11;29.48;;;16.25;;
21804;SDS011;11064;47.102;15.452;2023-02-28T21:07:38;27.00;;;14.38;;
21804;SDS011;11064;47.102;15.452;2023-02-28T21:10:04;23.70;;;13.88;;
21804;SDS011;11064;47.102;15.452;2023-02-28T21:12:31;23.10;;;13.75;;
21804;SDS011;11064;47.102;15.452;2023-02-28T21:14:58;30.08;;;17.05;;
21804;SDS011;11064;47.102;15.452;2023-02-28T21:17:24;27.13;;;15.70;;
21804;SDS011;11064;47.102;15.452;2023-02-28T21:19:50;27.85;;;16.48;;
21804;SDS011;11064;47.102;15.452;2023-02-28T21:22:16;27.83;;;16.30;;
21804;SDS011;11064;47.102;15.452;2023-02-28T21:24:42;25.50;;;14.55;;
21804;SDS011;11064;47.102;15.452;2023-02-28T21:27:08;26.83;;;14.75;;
21804;SDS011;11064;47.102;15.452;2023-02-28T21:29:34;28.40;;;16.00;;
21804;SDS011;11064;47.102;15.452;2023-02-28T21:32:00;26.40;;;14.90;;
21804;SDS011;11064;47.102;15.452;2023-02-28T21:34:26;25.23;;;14.90;;
21804;SDS011;11064;47.102;15.452;2023-02-28T21:36:52;28.10;;;15.43;;